Time;durP1;ratioP1;P1;durP2;ratioP2;P2;SDS_P1;SDS_P2;PMS_P1;PMS_P2;Temp;Humidity;BMP_temperature;BMP_pressure;BME280_temperature;BME280_humidity;BME280_pressure;Samples;Min_cycle;Max_cycle;Signal;HPM_P1;HPM_P2
2022/11/07 21:45:25;;;;;;;64.07;17.08;;;;;;;;;;5051662;28;20966;-46
2022/11/07 21:47:52;;;;;;;66.00;19.17;;;;;;;;;;5055877;28;20090;-45
2022/11/07 21:50:18;;;;;;;50.95;17.17;;;;;;;;;;5053258;28;20060;-47
2022/11/07 21:53:05;;;;;;;72.07;19.70;;;;;;;;;;5050867;28;20083;-43
2022/11/07 21:55:32;;;;;;;56.47;17.33;;;;;;;;;;5055514;28;20041;-45
2022/11/07 21:57:58;;;;;;;55.22;17.50;;;;;;;;;;5050553;28;20037;-46
2022/11/07 22:00:25;;;;;;;55.15;17.67;;;;;;;;;;5053302;28;20453;-44
2022/11/07 22:02:51;;;;;;;45.28;16.55;;;;;;;;;;5050849;28;20451;-47
2022/11/07 22:05:17;;;;;;;49.65;17.45;;;;;;;;;;5054350;28;20041;-45
2022/11/07 22:07:44;;;;;;;42.95;16.13;;;;;;;;;;5056316;28;20044;-43
2022/11/07 22:10:10;;;;;;;51.47;16.92;;;;;;;;;;5054096;28;20565;-49
2022/11/07 22:12:37;;;;;;;48.08;17.75;;;;;;;;;;5052837;28;20128;-47
2022/11/07 22:15:04;;;;;;;48.67;15.48;;;;;;;;;;5048002;28;20040;-46
2022/11/07 22:17:30;;;;;;;53.53;17.08;;;;;;;;;;5053806;28;20044;-49
2022/11/07 22:19:57;;;;;;;79.20;19.77;;;;;;;;;;5054927;28;20060;-43
2022/11/07 22:22:23;;;;;;;46.33;16.23;;;;;;;;;;5045132;28;20052;-44
2022/11/07 22:24:50;;;;;;;55.95;17.67;;;;;;;;;;5051990;28;20045;-44
2022/11/07 22:27:16;;;;;;;40.58;16.15;;;;;;;;;;5049479;28;20044;-47
2022/11/07 22:29:43;;;;;;;57.67;18.95;;;;;;;;;;5054764;28;20041;-48
2022/11/07 22:32:11;;;;;;;56.50;18.63;;;;;;;;;;5053668;28;20034;-46
2022/11/07 22:34:37;;;;;;;49.30;18.13;;;;;;;;;;5056234;28;20034;-46
2022/11/07 22:37:03;;;;;;;71.25;19.85;;;;;;;;;;5050034;28;20056;-44
2022/11/07 22:39:30;;;;;;;57.83;19.65;;;;;;;;;;5054792;28;20040;-45
2022/11/07 22:41:56;;;;;;;55.15;18.45;;;;;;;;;;5052749;28;20386;-48
2022/11/07 22:44:23;;;;;;;37.53;17.13;;;;;;;;;;5053640;28;20055;-48
2022/11/07 22:46:49;;;;;;;58.47;18.38;;;;;;;;;;5051854;28;20511;-47
2022/11/07 22:49:16;;;;;;;45.50;18.63;;;;;;;;;;5056255;28;20053;-49
2022/11/07 22:51:42;;;;;;;66.07;18.70;;;;;;;;;;5045945;28;20048;-45
2022/11/07 22:54:10;;;;;;;55.15;16.98;;;;;;;;;;5050771;28;20064;-45
2022/11/07 22:56:37;;;;;;;53.65;19.48;;;;;;;;;;5040590;28;20565;-47
2022/11/07 22:59:04;;;;;;;56.67;19.83;;;;;;;;;;5040364;28;20041;-47
2022/11/07 23:01:31;;;;;;;74.22;21.90;;;;;;;;;;5041732;28;20076;-46
2022/11/07 23:03:58;;;;;;;66.22;21.98;;;;;;;;;;5039405;28;20099;-49
2022/11/07 23:06:25;;;;;;;47.70;19.63;;;;;;;;;;5036652;28;20046;-44
2022/11/07 23:08:53;;;;;;;60.95;20.75;;;;;;;;;;5039791;28;20481;-47
2022/11/07 23:11:20;;;;;;;60.03;20.20;;;;;;;;;;5042736;28;20051;-46
2022/11/07 23:14:09;;;;;;;75.75;22.20;;;;;;;;;;5038239;28;20130;-48
2022/11/07 23:16:37;;;;;;;52.95;19.13;;;;;;;;;;5040100;28;20043;-45
2022/11/07 23:19:05;;;;;;;52.53;19.98;;;;;;;;;;5039761;28;20051;-44
2022/11/07 23:21:32;;;;;;;57.10;19.77;;;;;;;;;;5035423;28;20041;-47
2022/11/07 23:23:59;;;;;;;56.55;19.77;;;;;;;;;;5038725;28;20040;-43
2022/11/07 23:26:32;;;;;;;62.55;20.58;;;;;;;;;;5038312;28;20045;-44
2022/11/07 23:29:00;;;;;;;71.75;21.90;;;;;;;;;;5039879;28;20055;-45
2022/11/07 23:31:32;;;;;;;45.53;18.80;;;;;;;;;;5040352;28;20095;-47
2022/11/07 23:33:59;;;;;;;60.72;20.65;;;;;;;;;;5037191;28;20045;-45
2022/11/07 23:36:25;;;;;;;56.80;21.33;;;;;;;;;;5037453;28;20045;-48
2022/11/07 23:38:52;;;;;;;66.95;21.08;;;;;;;;;;5037036;28;20042;-43
2022/11/07 23:41:18;;;;;;;57.15;18.85;;;;;;;;;;5038037;28;20432;-43
2022/11/07 23:43:45;;;;;;;81.63;21.67;;;;;;;;;;5037347;28;20387;-45
2022/11/07 23:51:48;;;;;;;65.13;19.42;;;;;;;;;;5034666;28;20083;-45
2022/11/07 23:56:59;;;;;;;55.47;17.73;;;;;;;;;;5033703;28;20029;-47
